createdAt,value
2023-04-12T00:01:12.956Z,99345.91
2023-04-12T00:03:41.728Z,99351.13
2023-04-12T00:06:11.442Z,99347.63
2023-04-12T00:08:42.833Z,99339.72
2023-04-12T00:11:11.348Z,99342.34
2023-04-12T00:13:40.017Z,99334.47
2023-04-12T00:16:10.727Z,99327.41
2023-04-12T00:18:39.330Z,99323.00
2023-04-12T00:21:10.337Z,99316.88
2023-04-12T00:23:39.413Z,99305.50
2023-04-12T00:26:08.341Z,99308.91
2023-04-12T00:28:37.332Z,99294.03
2023-04-12T00:31:06.187Z,99293.09
2023-04-12T00:33:37.561Z,99295.66
2023-04-12T00:36:06.891Z,99279.91
2023-04-12T00:38:36.578Z,99268.53
2023-04-12T00:41:05.980Z,99269.31
2023-04-12T00:43:35.176Z,99263.19
2023-04-12T00:46:03.924Z,99256.16
2023-04-12T00:48:32.723Z,99243.00
2023-04-12T00:51:04.857Z,99242.09
2023-04-12T00:53:35.045Z,99235.91
2023-04-12T00:56:04.989Z,99230.66
2023-04-12T00:58:33.651Z,99236.72
2023-04-12T01:01:02.877Z,99226.19
2023-04-12T01:03:31.537Z,99220.09
2023-04-12T01:06:15.024Z,99212.16
2023-04-12T01:08:55.195Z,99205.16
2023-04-12T01:11:32.409Z,99197.28
2023-04-12T01:14:08.380Z,99190.25
2023-04-12T01:16:41.715Z,99184.09
2023-04-12T01:19:35.177Z,99181.47
2023-04-12T01:22:14.540Z,99177.03
2023-04-12T01:24:57.544Z,99167.41
2023-04-12T01:27:40.773Z,99160.41
2023-04-12T01:30:13.322Z,99154.28
2023-04-12T01:32:45.543Z,99157.75
2023-04-12T01:35:15.993Z,99156.81
2023-04-12T01:37:45.144Z,99148.97
2023-04-12T01:40:14.585Z,99141.97
2023-04-12T01:42:44.436Z,99146.28
2023-04-12T01:45:13.181Z,99139.28
2023-04-12T01:47:41.754Z,99131.41
2023-04-12T01:50:22.085Z,99120.09
2023-04-12T01:52:57.166Z,99113.91
2023-04-12T01:55:30.972Z,99106.94
2023-04-12T01:58:03.672Z,99099.03
2023-04-12T02:00:35.079Z,99085.13
2023-04-12T02:03:04.723Z,99082.44
2023-04-12T02:05:34.819Z,99071.09
2023-04-12T02:08:04.101Z,99075.44
2023-04-12T02:10:33.307Z,99064.06
2023-04-12T02:13:03.745Z,99051.84
2023-04-12T02:15:32.476Z,99039.63
2023-04-12T02:18:01.654Z,99036.13
2023-04-12T02:20:30.780Z,99034.34
2023-04-12T02:23:00.393Z,99035.16
2023-04-12T02:25:28.826Z,99034.25
2023-04-12T02:27:57.598Z,99025.56
2023-04-12T02:30:28.048Z,99012.47
2023-04-12T02:32:57.818Z,99015.09
2023-04-12T02:35:32.380Z,99014.22
2023-04-12T02:38:09.401Z,99007.22
2023-04-12T02:40:42.136Z,99002.00
2023-04-12T02:43:14.792Z,98995.00
2023-04-12T02:45:49.012Z,98987.16
2023-04-12T02:48:17.620Z,98988.00
2023-04-12T02:50:46.879Z,98980.13
2023-04-12T02:53:18.692Z,98953.13
2023-04-12T02:55:54.084Z,98949.63
2023-04-12T02:58:27.403Z,98937.44
2023-04-12T03:00:57.435Z,98929.56
2023-04-12T03:03:31.914Z,98920.00
2023-04-12T03:06:08.925Z,98918.22
2023-04-12T03:08:38.312Z,98907.75
2023-04-12T03:11:07.507Z,98902.50
2023-04-12T03:13:36.180Z,98900.72
2023-04-12T03:18:59.448Z,98888.47
2023-04-12T03:21:31.087Z,98878.88
2023-04-12T03:23:59.938Z,98874.50
2023-04-12T03:26:28.767Z,98862.31
2023-04-12T03:29:05.084Z,98848.41
2023-04-12T03:31:36.450Z,98850.94
2023-04-12T03:34:11.501Z,98849.22
2023-04-12T03:36:44.548Z,98828.31
2023-04-12T03:39:21.086Z,98839.63
2023-04-12T03:41:53.486Z,98829.16
2023-04-12T03:44:26.865Z,98818.72
2023-04-12T03:46:57.691Z,98805.66
2023-04-12T03:49:29.688Z,98807.41
2023-04-12T03:51:58.531Z,98793.47
2023-04-12T03:54:27.806Z,98792.56
2023-04-12T03:57:01.840Z,98785.59
2023-04-12T03:59:38.233Z,98781.25
2023-04-12T04:02:07.596Z,98777.75
2023-04-12T04:04:41.051Z,98764.72
2023-04-12T04:07:13.122Z,98763.84
2023-04-12T04:09:44.646Z,98746.44
2023-04-12T04:12:13.952Z,98753.41
2023-04-12T04:14:46.910Z,98746.44
2023-04-12T04:17:25.004Z,98734.28
2023-04-12T04:19:55.603Z,98729.06
2023-04-12T04:22:24.427Z,98724.72
2023-04-12T04:24:55.925Z,98722.97
2023-04-12T04:27:24.533Z,98717.78
2023-04-12T04:29:58.253Z,98712.56
2023-04-12T04:32:26.849Z,98717.78
2023-04-12T04:35:00.581Z,98707.34
2023-04-12T04:37:38.186Z,98709.06
2023-04-12T04:40:09.540Z,98687.34
2023-04-12T04:42:40.122Z,98693.41
2023-04-12T04:45:16.046Z,98696.03
2023-04-12T04:47:46.683Z,98686.47
2023-04-12T04:50:16.845Z,98687.34
2023-04-12T04:52:45.304Z,98682.13
2023-04-12T04:55:15.429Z,98683.00
2023-04-12T04:57:46.866Z,98679.53
2023-04-12T05:00:18.435Z,98676.91
2023-04-12T05:02:53.631Z,98670.81
2023-04-12T05:05:32.672Z,98664.75
2023-04-12T05:08:08.033Z,98657.78
2023-04-12T05:10:37.926Z,98663.84
2023-04-12T05:13:06.543Z,98663.84
2023-04-12T05:15:35.345Z,98650.81
2023-04-12T05:18:04.034Z,98656.00
2023-04-12T05:20:34.059Z,98657.75
2023-04-12T05:23:02.863Z,98656.03
2023-04-12T05:25:31.588Z,98647.31
2023-04-12T05:28:07.275Z,98651.66
2023-04-12T05:30:36.119Z,98642.91
2023-04-12T05:33:06.060Z,98639.41
2023-04-12T05:35:37.771Z,98629.00
2023-04-12T05:38:06.362Z,98629.81
2023-04-12T05:40:36.481Z,98615.91
2023-04-12T05:43:06.593Z,98623.72
2023-04-12T05:45:35.445Z,98616.75
2023-04-12T05:48:04.066Z,98612.38
2023-04-12T05:50:32.737Z,98601.09
2023-04-12T05:53:03.219Z,98601.09
2023-04-12T05:55:36.574Z,98601.97
2023-04-12T05:58:06.612Z,98589.78
2023-04-12T06:00:35.209Z,98594.16
2023-04-12T06:03:03.909Z,98582.84
2023-04-12T06:05:32.866Z,98588.94
2023-04-12T06:08:02.033Z,98579.38
2023-04-12T06:10:32.408Z,98578.50
2023-04-12T06:13:01.205Z,98573.28
2023-04-12T06:15:31.925Z,98585.44
2023-04-12T06:18:00.780Z,98580.22
2023-04-12T06:20:29.594Z,98582.00
2023-04-12T06:22:58.305Z,98573.31
2023-04-12T06:25:27.343Z,98568.97
2023-04-12T06:27:58.453Z,98568.09
2023-04-12T06:30:28.078Z,98569.00
2023-04-12T06:32:56.927Z,98562.03
2023-04-12T06:35:25.526Z,98557.69
2023-04-12T06:37:54.065Z,98557.69
2023-04-12T06:40:23.195Z,98543.81
2023-04-12T06:42:51.913Z,98548.16
2023-04-12T06:45:25.553Z,98542.06
2023-04-12T06:47:55.998Z,98533.41
2023-04-12T06:50:24.745Z,98535.13
2023-04-12T06:52:53.529Z,98523.00
2023-04-12T06:55:22.733Z,98523.88
2023-04-12T06:57:52.375Z,98516.06
2023-04-12T07:00:21.263Z,98511.72
2023-04-12T07:02:51.620Z,98507.38
2023-04-12T07:05:20.507Z,98507.41
2023-04-12T07:07:49.019Z,98510.88
2023-04-12T07:10:17.782Z,98500.44
2023-04-12T07:12:46.735Z,98495.22
2023-04-12T07:15:15.394Z,98488.28
2023-04-12T07:17:44.037Z,98484.84
2023-04-12T07:20:14.315Z,98483.13
2023-04-12T07:22:43.088Z,98470.97
2023-04-12T07:25:11.789Z,98463.16
2023-04-12T07:27:40.410Z,98458.81
2023-04-12T07:30:10.087Z,98467.53
2023-04-12T07:32:38.944Z,98465.81
2023-04-12T07:35:08.481Z,98458.03
2023-04-12T07:37:39.023Z,98450.22
2023-04-12T07:40:08.624Z,98455.44
2023-04-12T07:42:37.063Z,98445.91
2023-04-12T07:45:06.799Z,98452.03
2023-04-12T07:47:35.380Z,98443.31
2023-04-12T07:50:04.253Z,98434.66
2023-04-12T07:52:33.446Z,98436.41
2023-04-12T07:55:03.464Z,98429.47
2023-04-12T07:57:34.076Z,98418.16
2023-04-12T08:00:02.877Z,98426.00
2023-04-12T08:02:41.609Z,98415.56
2023-04-12T08:05:10.804Z,98437.34
2023-04-12T08:07:39.351Z,98442.56
2023-04-12T08:10:10.586Z,98454.69
2023-04-12T08:12:39.146Z,98457.31
2023-04-12T08:15:09.366Z,98442.53
2023-04-12T08:17:38.039Z,98446.03
2023-04-12T08:20:07.610Z,98431.22
2023-04-12T08:22:36.312Z,98426.03
2023-04-12T08:25:05.560Z,98417.34
2023-04-12T08:27:35.863Z,98426.94
2023-04-12T08:30:04.930Z,98420.84
2023-04-12T08:32:33.515Z,98413.91
2023-04-12T08:35:02.560Z,98418.25
2023-04-12T08:37:31.709Z,98413.03
2023-04-12T08:40:01.473Z,98419.13
2023-04-12T08:42:30.748Z,98413.06
2023-04-12T08:45:00.830Z,98418.28
2023-04-12T08:47:29.375Z,98426.13
2023-04-12T08:49:58.390Z,98409.59
2023-04-12T08:52:27.118Z,98404.38
2023-04-12T08:54:56.443Z,98401.75
2023-04-12T08:57:26.623Z,98403.53
2023-04-12T08:59:56.205Z,98398.28
2023-04-12T09:02:26.516Z,98400.06
2023-04-12T09:04:55.824Z,98405.28
2023-04-12T09:07:28.163Z,98408.78
2023-04-12T09:09:58.323Z,98393.13
2023-04-12T09:12:27.392Z,98400.97
2023-04-12T09:15:12.519Z,98400.09
2023-04-12T09:17:45.629Z,98395.75
2023-04-12T09:20:25.795Z,98394.00
2023-04-12T09:22:55.811Z,98387.91
2023-04-12T09:25:38.696Z,98387.03
2023-04-12T09:28:23.031Z,98391.41
2023-04-12T09:30:52.658Z,98378.34
2023-04-12T09:33:24.156Z,98383.56
2023-04-12T09:36:01.726Z,98381.84
2023-04-12T09:38:30.946Z,98380.97
2023-04-12T09:41:18.070Z,98374.88
2023-04-12T09:43:48.300Z,98387.97
2023-04-12T09:46:17.035Z,98381.84
2023-04-12T09:48:52.715Z,98399.28
2023-04-12T09:51:29.317Z,98387.94
2023-04-12T09:54:00.877Z,98387.09
2023-04-12T09:56:30.997Z,98387.97
2023-04-12T09:59:03.681Z,98381.00
2023-04-12T10:01:36.957Z,98365.31
2023-04-12T10:04:08.887Z,98366.19
2023-04-12T10:06:38.210Z,98377.50
2023-04-12T10:09:08.814Z,98381.88
2023-04-12T10:11:41.811Z,98367.09
2023-04-12T10:14:12.161Z,98368.81
2023-04-12T10:16:42.309Z,98367.06
2023-04-12T10:19:14.405Z,98365.31
2023-04-12T10:21:43.069Z,98368.78
2023-04-12T10:24:12.435Z,98363.59
2023-04-12T10:26:43.225Z,98364.44
2023-04-12T10:29:25.933Z,98361.84
2023-04-12T10:31:55.139Z,98358.34
2023-04-12T10:34:32.308Z,98353.06
2023-04-12T10:37:02.409Z,98351.34
2023-04-12T10:39:44.904Z,98350.47
2023-04-12T10:42:27.259Z,98362.69
2023-04-12T10:45:00.991Z,98376.63
2023-04-12T10:48:02.040Z,98381.84
2023-04-12T10:50:35.503Z,98375.75
2023-04-12T10:53:26.674Z,98378.41
2023-04-12T10:55:55.605Z,98383.63
2023-04-12T10:58:57.702Z,98386.22
2023-04-12T11:01:28.237Z,98394.09
2023-04-12T11:04:18.125Z,98395.81
2023-04-12T11:07:05.293Z,98394.97
2023-04-12T11:09:57.972Z,98394.97
2023-04-12T11:12:30.650Z,98390.56
2023-04-12T11:15:02.235Z,98390.59
2023-04-12T11:17:56.217Z,98391.47
2023-04-12T11:20:28.507Z,98395.81
2023-04-12T11:22:59.416Z,98396.69
2023-04-12T11:25:30.060Z,98390.56
2023-04-12T11:27:58.674Z,98391.41
2023-04-12T11:30:29.802Z,98385.31
2023-04-12T11:32:58.620Z,98379.22
2023-04-12T11:35:30.456Z,98370.47
2023-04-12T11:38:01.243Z,98388.78
2023-04-12T11:40:31.137Z,98386.16
2023-04-12T11:43:02.857Z,98397.50
2023-04-12T11:45:32.037Z,98393.09
2023-04-12T11:48:00.861Z,98400.09
2023-04-12T11:50:30.687Z,98393.94
2023-04-12T11:53:13.118Z,98399.16
2023-04-12T11:55:42.100Z,98394.78
2023-04-12T11:58:10.597Z,98387.75
2023-04-12T12:00:39.533Z,98393.00
2023-04-12T12:03:08.943Z,98392.09
2023-04-12T12:05:41.341Z,98392.03
2023-04-12T12:08:12.302Z,98388.50
2023-04-12T12:10:46.928Z,98396.31
2023-04-12T12:13:24.702Z,98397.16
2023-04-12T12:15:53.562Z,98401.47
2023-04-12T12:18:27.248Z,98393.66
2023-04-12T12:20:56.710Z,98396.25
2023-04-12T12:23:31.542Z,98399.69
2023-04-12T12:26:10.509Z,98391.75
2023-04-12T12:28:52.274Z,98393.50
2023-04-12T12:31:22.619Z,98384.69
2023-04-12T12:33:55.580Z,98383.81
2023-04-12T12:36:31.394Z,98389.00
2023-04-12T12:39:08.148Z,98385.50
2023-04-12T12:41:36.977Z,98385.44
2023-04-12T12:44:07.238Z,98387.97
2023-04-12T12:49:07.558Z,98387.03
2023-04-12T12:51:36.477Z,98387.03
2023-04-12T12:54:07.805Z,98395.72
2023-04-12T12:56:36.726Z,98378.16
2023-04-12T12:59:05.516Z,98381.63
2023-04-12T13:01:34.034Z,98372.84
2023-04-12T13:04:02.731Z,98374.53
2023-04-12T13:06:32.000Z,98370.06
2023-04-12T13:09:00.706Z,98375.25
2023-04-12T13:11:30.956Z,98370.88
2023-04-12T13:13:59.647Z,98366.53
2023-04-12T13:16:29.670Z,98363.94
2023-04-12T13:18:58.783Z,98365.75
2023-04-12T13:21:27.716Z,98373.63
2023-04-12T13:23:56.177Z,98369.28
2023-04-12T13:26:25.922Z,98371.91
2023-04-12T13:28:56.293Z,98366.66
2023-04-12T13:31:25.166Z,98362.25
2023-04-12T13:33:53.685Z,98363.03
2023-04-12T13:36:22.332Z,98362.00
2023-04-12T13:38:51.015Z,98362.59
2023-04-12T13:41:19.721Z,98353.56
2023-04-12T13:43:48.225Z,98347.34
2023-04-12T13:46:18.272Z,98370.09
2023-04-12T13:48:46.780Z,98366.69
2023-04-12T13:51:15.395Z,98359.78
2023-04-12T13:53:43.946Z,98361.63
2023-04-12T13:56:12.847Z,98368.75
2023-04-12T13:58:41.434Z,98377.56
2023-04-12T14:01:10.594Z,98390.88
2023-04-12T14:03:40.728Z,98395.38
2023-04-12T14:06:09.654Z,98386.63
2023-04-12T14:08:38.337Z,98401.56
2023-04-12T14:11:07.537Z,98400.78
2023-04-12T14:13:35.960Z,98399.13
2023-04-12T14:16:04.539Z,98415.00
2023-04-12T14:18:33.067Z,98436.97
2023-04-12T14:21:04.042Z,98445.00
2023-04-12T14:23:32.594Z,98467.81
2023-04-12T14:26:01.128Z,98466.16
2023-04-12T14:28:31.097Z,98462.78
2023-04-12T14:31:02.976Z,98476.84
2023-04-12T14:33:33.099Z,98459.44
2023-04-12T14:36:05.091Z,98462.97
2023-04-12T14:38:33.855Z,98454.25
2023-04-12T14:41:02.833Z,98459.47
2023-04-12T14:43:31.321Z,98449.03
2023-04-12T14:46:00.061Z,98459.47
2023-04-12T14:48:28.791Z,98449.03
2023-04-12T14:50:57.368Z,98435.97
2023-04-12T14:53:27.440Z,98440.31
2023-04-12T14:55:55.930Z,98439.47
2023-04-12T14:58:24.395Z,98435.97
2023-04-12T15:00:53.034Z,98436.81
2023-04-12T15:03:22.199Z,98447.25
2023-04-12T15:05:50.858Z,98440.25
2023-04-12T15:08:19.842Z,98440.19
2023-04-12T15:10:49.961Z,98431.38
2023-04-12T15:13:18.996Z,98432.22
2023-04-12T15:15:48.360Z,98442.72
2023-04-12T15:18:16.968Z,98454.97
2023-04-12T15:20:45.599Z,98470.72
2023-04-12T15:23:14.140Z,98499.53
2023-04-12T15:25:42.631Z,98522.28
2023-04-12T15:28:16.175Z,98489.13
2023-04-12T15:30:44.663Z,98497.88
2023-04-12T15:33:13.236Z,98503.06
2023-04-12T15:35:41.850Z,98499.53
2023-04-12T15:38:14.283Z,98494.31
2023-04-12T15:40:44.516Z,98510.91
2023-04-12T15:43:14.456Z,98497.84
2023-04-12T15:45:44.980Z,98499.59
2023-04-12T15:48:14.571Z,98500.47
2023-04-12T15:50:43.345Z,98510.06
2023-04-12T15:53:12.116Z,98509.22
2023-04-12T15:55:41.131Z,98507.47
2023-04-12T15:58:14.126Z,98504.84
2023-04-12T16:00:44.067Z,98510.94
2023-04-12T16:03:17.666Z,98518.78
2023-04-12T16:05:47.125Z,98525.75
2023-04-12T16:08:15.600Z,98531.88
2023-04-12T16:10:44.240Z,98541.47
2023-04-12T16:13:13.862Z,98539.72
2023-04-12T16:15:43.921Z,98537.09
2023-04-12T16:18:12.874Z,98544.97
2023-04-12T16:20:44.649Z,98531.03
2023-04-12T16:23:13.539Z,98540.63
2023-04-12T16:25:42.161Z,98541.47
2023-04-12T16:28:12.502Z,98544.97
2023-04-12T16:30:41.370Z,98551.94
2023-04-12T16:33:11.431Z,98546.66
2023-04-12T16:35:40.010Z,98554.50
2023-04-12T16:38:08.584Z,98558.84
2023-04-12T16:40:37.329Z,98559.66
2023-04-12T16:43:06.835Z,98558.78
2023-04-12T16:45:35.472Z,98550.94
2023-04-12T16:48:04.201Z,98537.88
2023-04-12T16:50:34.148Z,98546.63
2023-04-12T16:53:03.810Z,98547.53
2023-04-12T16:55:32.321Z,98529.25
2023-04-12T16:58:00.864Z,98540.63
2023-04-12T17:00:29.531Z,98541.50
2023-04-12T17:02:58.129Z,98540.59
2023-04-12T17:05:27.216Z,98536.25
2023-04-12T17:07:57.585Z,98529.28
2023-04-12T17:10:26.795Z,98525.78
2023-04-12T17:12:56.811Z,98531.88
2023-04-12T17:15:27.417Z,98538.84
2023-04-12T17:18:02.608Z,98534.50
2023-04-12T17:20:31.525Z,98535.38
2023-04-12T17:23:02.207Z,98534.47
2023-04-12T17:25:32.157Z,98530.13
2023-04-12T17:28:01.266Z,98529.25
2023-04-12T17:30:30.218Z,98524.88
2023-04-12T17:33:01.144Z,98517.88
2023-04-12T17:35:30.283Z,98512.59
2023-04-12T17:37:59.077Z,98514.31
2023-04-12T17:40:29.242Z,98517.81
2023-04-12T17:42:57.731Z,98513.44
2023-04-12T17:45:26.519Z,98511.66
2023-04-12T17:47:56.001Z,98513.38
2023-04-12T17:50:24.892Z,98508.16
2023-04-12T17:52:55.695Z,98508.09
2023-04-12T17:55:25.987Z,98511.59
2023-04-12T17:57:57.104Z,98515.91
2023-04-12T18:00:26.833Z,98517.63
2023-04-12T18:02:56.469Z,98516.75
2023-04-12T18:05:27.457Z,98513.25
2023-04-12T18:08:00.641Z,98523.66
2023-04-12T18:10:30.541Z,98520.16
2023-04-12T18:13:02.119Z,98523.59
2023-04-12T18:15:34.944Z,98534.00
2023-04-12T18:18:06.625Z,98532.22
2023-04-12T18:20:37.446Z,98535.66
2023-04-12T18:23:06.650Z,98530.44
2023-04-12T18:25:36.702Z,98535.63
2023-04-12T18:28:10.304Z,98519.97
2023-04-12T18:30:40.931Z,98527.75
2023-04-12T18:33:12.279Z,98529.44
2023-04-12T18:35:46.913Z,98536.38
2023-04-12T18:38:17.687Z,98540.69
2023-04-12T18:40:47.296Z,98542.38
2023-04-12T18:43:19.211Z,98541.50
2023-04-12T18:45:52.225Z,98544.94
2023-04-12T18:48:21.939Z,98547.50
2023-04-12T18:50:52.918Z,98544.00
2023-04-12T18:53:25.623Z,98556.16
2023-04-12T18:55:55.153Z,98562.22
2023-04-12T18:58:29.797Z,98556.13
2023-04-12T19:01:05.128Z,98550.00
2023-04-12T19:03:36.776Z,98562.19
2023-04-12T19:06:07.768Z,98567.41
2023-04-12T19:08:37.440Z,98572.59
2023-04-12T19:11:09.983Z,98573.47
2023-04-12T19:13:42.896Z,98576.94
2023-04-12T19:16:12.997Z,98580.38
2023-04-12T19:18:42.743Z,98580.38
2023-04-12T19:21:11.698Z,98576.06
2023-04-12T19:23:40.360Z,98568.22
2023-04-12T19:26:09.874Z,98554.28
2023-04-12T19:28:46.579Z,98564.69
2023-04-12T19:31:18.232Z,98558.59
2023-04-12T19:33:48.327Z,98559.44
2023-04-12T19:36:19.745Z,98568.06
2023-04-12T19:38:50.345Z,98566.31
2023-04-12T19:41:21.367Z,98572.38
2023-04-12T19:43:52.705Z,98567.09
2023-04-12T19:46:23.412Z,98574.91
2023-04-12T19:48:55.903Z,98558.38
2023-04-12T19:51:26.048Z,98553.13
2023-04-12T19:53:57.559Z,98554.81
2023-04-12T19:56:30.309Z,98557.38
2023-04-12T19:59:02.621Z,98566.91
2023-04-12T20:01:43.492Z,98567.75
2023-04-12T20:04:15.215Z,98564.25
2023-04-12T20:06:47.729Z,98558.13
2023-04-12T20:09:19.047Z,98564.19
2023-04-12T20:11:49.779Z,98565.84
2023-04-12T20:14:24.889Z,98573.63
2023-04-12T20:16:58.390Z,98572.72
2023-04-12T20:19:30.797Z,98570.09
2023-04-12T20:22:04.547Z,98565.75
2023-04-12T20:24:38.621Z,98566.59
2023-04-12T20:27:10.530Z,98561.38
2023-04-12T20:29:43.353Z,98563.94
2023-04-12T20:32:20.701Z,98573.53
2023-04-12T20:34:59.741Z,98575.22
2023-04-12T20:37:33.467Z,98577.84
2023-04-12T20:40:10.184Z,98582.16
2023-04-12T20:42:45.014Z,98607.28
2023-04-12T20:45:19.851Z,98593.34
2023-04-12T20:47:56.321Z,98588.09
2023-04-12T20:50:31.575Z,98585.50
2023-04-12T20:53:03.092Z,98567.25
2023-04-12T20:55:35.949Z,98556.84
2023-04-12T20:58:09.538Z,98546.41
2023-04-12T21:00:42.223Z,98540.28
2023-04-12T21:03:14.584Z,98544.56
2023-04-12T21:05:50.529Z,98546.25
2023-04-12T21:08:26.291Z,98550.50
2023-04-12T21:11:00.432Z,98552.16
2023-04-12T21:13:32.673Z,98543.41
2023-04-12T21:16:08.757Z,98541.59
2023-04-12T21:18:42.232Z,98543.28
2023-04-12T21:21:22.856Z,98540.66
2023-04-12T21:23:57.629Z,98542.31
2023-04-12T21:26:35.210Z,98545.75
2023-04-12T21:29:05.060Z,98550.03
2023-04-12T21:31:37.488Z,98548.19
2023-04-12T21:34:13.510Z,98556.81
2023-04-12T21:36:49.497Z,98558.47
2023-04-12T21:39:19.590Z,98553.22
2023-04-12T21:41:51.197Z,98559.25
2023-04-12T21:44:24.033Z,98539.28
2023-04-12T21:46:57.640Z,98531.47
2023-04-12T21:49:30.179Z,98511.56
2023-04-12T21:51:59.482Z,98496.81
2023-04-12T21:54:32.171Z,98497.75
2023-04-12T21:57:04.363Z,98509.91
2023-04-12T21:59:39.915Z,98510.81
2023-04-12T22:02:13.612Z,98508.22
2023-04-12T22:04:46.105Z,98510.84
2023-04-12T22:07:19.572Z,98512.59
2023-04-12T22:09:50.517Z,98509.13
2023-04-12T22:12:24.050Z,98501.31
2023-04-12T22:14:58.007Z,98500.41
2023-04-12T22:17:31.280Z,98500.41
2023-04-12T22:20:04.755Z,98491.78
2023-04-12T22:22:38.348Z,98493.50
2023-04-12T22:25:16.590Z,98491.78
2023-04-12T22:27:48.068Z,98480.47
2023-04-12T22:30:22.609Z,98484.81
2023-04-12T22:32:55.643Z,98477.88
2023-04-12T22:35:25.689Z,98474.41
2023-04-12T22:37:56.463Z,98472.63
2023-04-12T22:40:26.488Z,98489.09
2023-04-12T22:42:58.164Z,98484.72
2023-04-12T22:45:32.351Z,98477.75
2023-04-12T22:48:07.802Z,98474.25
2023-04-12T22:50:39.721Z,98470.78
2023-04-12T22:53:12.747Z,98475.09
2023-04-12T22:55:43.469Z,98471.63
2023-04-12T22:58:13.378Z,98464.69
2023-04-12T23:00:43.110Z,98448.22
2023-04-12T23:03:13.760Z,98445.59
2023-04-12T23:05:45.914Z,98440.41
2023-04-12T23:08:22.557Z,98436.03
2023-04-12T23:10:54.637Z,98433.44
2023-04-12T23:13:24.349Z,98428.22
2023-04-12T23:15:54.184Z,98424.81
2023-04-12T23:18:29.733Z,98410.94
2023-04-12T23:21:04.288Z,98404.84
2023-04-12T23:23:37.108Z,98403.16
2023-04-12T23:26:08.320Z,98404.91
2023-04-12T23:28:40.667Z,98396.22
2023-04-12T23:31:14.156Z,98396.28
2023-04-12T23:33:47.659Z,98391.09
2023-04-12T23:36:22.077Z,98388.50
2023-04-12T23:38:55.371Z,98385.94
2023-04-12T23:41:28.183Z,98384.25
2023-04-12T23:43:57.531Z,98380.78
2023-04-12T23:46:28.420Z,98373.91
2023-04-12T23:49:00.935Z,98368.69
2023-04-12T23:51:31.311Z,98360.09
2023-04-12T23:54:01.152Z,98358.38
2023-04-12T23:56:30.807Z,98360.13
2023-04-12T23:59:02.347Z,98361.88
